createdAt,value
2023-03-27T00:01:43.519Z,4.57
2023-03-27T00:04:45.246Z,4.20
2023-03-27T00:07:50.041Z,3.50
2023-03-27T00:10:53.731Z,3.47
2023-03-27T00:13:56.701Z,2.85
2023-03-27T00:17:00.828Z,2.50
2023-03-27T00:20:04.942Z,2.35
2023-03-27T00:23:06.912Z,1.92
2023-03-27T00:26:08.664Z,2.47
2023-03-27T00:29:10.716Z,2.20
2023-03-27T00:32:13.439Z,1.85
2023-03-27T00:35:17.854Z,2.00
2023-03-27T00:38:22.250Z,2.05
2023-03-27T00:41:24.708Z,1.80
2023-03-27T00:44:34.290Z,2.00
2023-03-27T00:47:40.029Z,2.08
2023-03-27T00:50:45.436Z,1.88
2023-03-27T00:53:50.698Z,1.92
2023-03-27T00:57:06.267Z,1.90
2023-03-27T01:00:14.800Z,2.30
2023-03-27T01:03:29.095Z,2.15
2023-03-27T01:06:34.386Z,1.98
2023-03-27T01:09:38.792Z,1.80
2023-03-27T01:13:27.087Z,1.75
2023-03-27T01:16:45.420Z,2.03
2023-03-27T01:19:53.479Z,1.85
2023-03-27T01:23:36.313Z,2.08
2023-03-27T01:27:02.520Z,1.67
2023-03-27T01:30:21.257Z,1.80
2023-03-27T01:33:48.319Z,1.90
2023-03-27T01:37:06.826Z,1.77
2023-03-27T01:40:19.756Z,1.63
2023-03-27T01:43:36.354Z,1.92
2023-03-27T01:46:57.134Z,2.00
2023-03-27T01:50:38.430Z,2.00
2023-03-27T01:53:50.035Z,2.17
2023-03-27T01:57:02.783Z,1.98
2023-03-27T02:00:19.421Z,2.63
2023-03-27T02:03:29.510Z,2.70
2023-03-27T02:06:47.285Z,2.67
2023-03-27T02:09:54.165Z,2.28
2023-03-27T02:13:05.372Z,2.03
2023-03-27T02:16:14.079Z,2.33
2023-03-27T02:22:38.200Z,2.80
2023-03-27T02:25:45.136Z,2.63
2023-03-27T02:29:16.452Z,2.35
2023-03-27T02:32:40.266Z,1.88
2023-03-27T02:36:21.306Z,1.67
2023-03-27T02:40:00.123Z,1.75
2023-03-27T02:43:24.435Z,2.00
2023-03-27T02:46:41.707Z,1.75
2023-03-27T02:49:54.848Z,1.83
2023-03-27T02:53:02.314Z,1.92
2023-03-27T02:56:07.984Z,2.60
2023-03-27T02:59:16.680Z,1.92
2023-03-27T03:02:26.703Z,2.20
2023-03-27T03:05:32.929Z,2.25
2023-03-27T03:08:38.691Z,2.20
2023-03-27T03:14:54.359Z,1.88
2023-03-27T03:17:57.295Z,2.35
2023-03-27T03:21:00.614Z,2.67
2023-03-27T03:24:04.174Z,2.40
2023-03-27T03:27:07.569Z,2.60
2023-03-27T03:30:19.916Z,2.40
2023-03-27T03:33:31.620Z,2.40
2023-03-27T03:36:34.343Z,2.47
2023-03-27T03:39:36.831Z,2.90
2023-03-27T03:42:51.169Z,2.50
2023-03-27T03:49:01.709Z,3.03
2023-03-27T03:52:04.995Z,3.10
2023-03-27T03:55:12.387Z,3.38
2023-03-27T03:58:14.254Z,3.47
2023-03-27T04:01:20.611Z,4.75
2023-03-27T04:04:26.242Z,4.97
2023-03-27T04:07:40.645Z,5.63
2023-03-27T04:11:10.324Z,5.75
2023-03-27T04:14:32.571Z,7.45
2023-03-27T04:17:38.921Z,7.55
2023-03-27T04:20:50.542Z,6.10
2023-03-27T04:23:54.768Z,5.28
2023-03-27T04:27:06.218Z,4.28
2023-03-27T04:30:28.916Z,4.00
2023-03-27T04:33:54.660Z,3.70
2023-03-27T04:37:16.137Z,3.42
2023-03-27T04:40:32.392Z,3.00
2023-03-27T04:43:37.255Z,3.25
2023-03-27T04:46:40.209Z,3.15
2023-03-27T04:49:51.476Z,2.65
2023-03-27T04:53:00.579Z,2.92
2023-03-27T04:56:11.688Z,3.20
2023-03-27T04:59:17.225Z,2.50
2023-03-27T05:02:28.171Z,2.75
2023-03-27T05:05:38.044Z,2.80
2023-03-27T05:08:41.561Z,3.22
2023-03-27T05:11:53.447Z,3.72
2023-03-27T05:14:56.498Z,5.82
2023-03-27T05:18:09.460Z,5.13
2023-03-27T05:21:14.000Z,5.03
2023-03-27T05:24:17.097Z,5.53
2023-03-27T05:27:21.246Z,3.65
2023-03-27T05:30:31.464Z,3.75
2023-03-27T05:34:01.376Z,4.15
2023-03-27T05:37:09.064Z,3.80
2023-03-27T05:40:29.004Z,3.90
2023-03-27T05:43:32.220Z,4.57
2023-03-27T05:46:35.162Z,6.00
2023-03-27T05:49:47.489Z,9.77
2023-03-27T05:52:56.464Z,11.52
2023-03-27T05:56:08.087Z,9.05
2023-03-27T05:59:23.010Z,5.47
2023-03-27T06:02:29.927Z,3.90
2023-03-27T06:05:38.076Z,4.60
2023-03-27T06:08:42.209Z,5.70
2023-03-27T06:11:45.470Z,3.75
2023-03-27T06:14:48.195Z,4.13
2023-03-27T06:18:20.764Z,3.70
2023-03-27T06:21:23.772Z,2.83
2023-03-27T06:24:32.774Z,3.20
2023-03-27T06:27:38.099Z,2.83
2023-03-27T06:30:41.593Z,2.67
2023-03-27T06:34:10.980Z,2.42
2023-03-27T06:37:37.033Z,3.35
2023-03-27T06:40:39.315Z,3.72
2023-03-27T06:43:41.136Z,3.03
2023-03-27T06:46:49.875Z,3.20
2023-03-27T06:49:56.838Z,3.10
2023-03-27T06:52:59.709Z,3.80
2023-03-27T06:56:22.641Z,3.42
2023-03-27T06:59:45.917Z,3.65
2023-03-27T07:03:04.773Z,3.65
2023-03-27T07:06:20.138Z,3.38
2023-03-27T07:09:29.661Z,3.28
2023-03-27T07:12:37.045Z,3.40
2023-03-27T07:15:40.189Z,3.42
2023-03-27T07:18:43.697Z,3.10
2023-03-27T07:21:46.071Z,3.80
2023-03-27T07:24:48.208Z,3.40
2023-03-27T07:27:50.911Z,3.00
2023-03-27T07:30:53.318Z,2.90
2023-03-27T07:33:58.410Z,2.70
2023-03-27T07:37:26.109Z,2.20
2023-03-27T07:40:54.472Z,2.20
2023-03-27T07:44:18.049Z,1.85
2023-03-27T07:47:30.549Z,1.90
2023-03-27T07:50:35.059Z,1.88
2023-03-27T07:53:37.955Z,2.05
2023-03-27T07:56:59.422Z,3.55
2023-03-27T08:00:15.898Z,4.00
2023-03-27T08:03:19.866Z,3.40
2023-03-27T08:06:28.175Z,3.50
2023-03-27T08:09:30.678Z,2.75
2023-03-27T08:12:34.207Z,2.97
2023-03-27T08:15:36.853Z,2.88
2023-03-27T08:18:47.274Z,3.03
2023-03-27T08:21:50.698Z,2.67
2023-03-27T08:24:54.219Z,2.80
2023-03-27T08:28:03.353Z,2.80
2023-03-27T08:31:16.174Z,2.63
2023-03-27T08:34:20.520Z,3.85
2023-03-27T08:37:27.875Z,4.90
2023-03-27T08:40:59.497Z,4.63
2023-03-27T08:44:15.323Z,4.13
2023-03-27T08:47:34.705Z,3.45
2023-03-27T08:50:53.003Z,3.13
2023-03-27T08:54:20.234Z,3.40
2023-03-27T08:57:24.700Z,3.55
2023-03-27T09:00:39.779Z,3.53
2023-03-27T09:04:09.960Z,4.80
2023-03-27T09:07:18.053Z,3.35
2023-03-27T09:11:28.524Z,4.25
2023-03-27T09:14:52.670Z,3.10
2023-03-27T09:18:01.026Z,2.53
2023-03-27T09:21:13.307Z,2.95
2023-03-27T09:24:28.814Z,3.50
2023-03-27T09:27:55.181Z,3.75
2023-03-27T09:31:30.373Z,4.38
2023-03-27T09:34:34.066Z,4.53
2023-03-27T09:37:37.694Z,3.97
2023-03-27T09:40:48.499Z,4.28
2023-03-27T09:44:09.407Z,3.17
2023-03-27T09:47:25.055Z,3.10
2023-03-27T09:50:39.173Z,3.03
2023-03-27T09:53:59.309Z,3.33
2023-03-27T09:57:11.116Z,3.65
2023-03-27T10:00:29.814Z,3.22
2023-03-27T10:03:39.151Z,3.17
2023-03-27T10:07:23.345Z,4.45
2023-03-27T10:10:46.454Z,5.03
2023-03-27T10:14:13.167Z,4.07
2023-03-27T10:17:32.096Z,3.90
2023-03-27T10:20:50.563Z,4.40
2023-03-27T10:24:00.919Z,3.33
2023-03-27T10:27:26.736Z,2.58
2023-03-27T10:30:59.058Z,3.25
2023-03-27T10:34:47.485Z,2.97
2023-03-27T10:37:56.726Z,3.22
2023-03-27T10:41:28.068Z,3.17
2023-03-27T10:44:34.717Z,3.80
2023-03-27T10:47:37.045Z,6.05
2023-03-27T10:50:54.740Z,4.72
2023-03-27T10:54:56.769Z,3.90
2023-03-27T10:58:05.448Z,4.00
2023-03-27T11:01:18.801Z,3.83
2023-03-27T11:04:56.048Z,3.78
2023-03-27T11:08:10.191Z,4.80
2023-03-27T11:11:33.103Z,3.90
2023-03-27T11:14:54.090Z,3.13
2023-03-27T11:18:30.957Z,3.00
2023-03-27T11:21:47.427Z,3.38
2023-03-27T11:25:20.077Z,3.65
2023-03-27T11:28:31.828Z,4.82
2023-03-27T11:31:54.614Z,4.35
2023-03-27T11:35:28.661Z,4.53
2023-03-27T11:38:56.997Z,4.53
2023-03-27T11:42:03.120Z,3.58
2023-03-27T11:45:09.333Z,3.22
2023-03-27T11:48:49.770Z,3.80
2023-03-27T11:52:00.169Z,3.53
2023-03-27T11:55:37.876Z,3.88
2023-03-27T11:58:55.737Z,3.88
2023-03-27T12:02:17.112Z,4.28
2023-03-27T12:05:48.923Z,4.90
2023-03-27T12:09:16.530Z,6.30
2023-03-27T12:12:48.324Z,4.53
2023-03-27T12:15:51.894Z,4.60
2023-03-27T12:19:08.184Z,5.03
2023-03-27T12:22:27.842Z,5.60
2023-03-27T12:26:03.892Z,3.97
2023-03-27T12:29:28.164Z,4.93
2023-03-27T12:33:00.246Z,4.18
2023-03-27T12:36:10.036Z,3.85
2023-03-27T12:39:18.803Z,3.58
2023-03-27T12:42:48.739Z,3.13
2023-03-27T12:46:07.854Z,3.45
2023-03-27T12:49:12.258Z,3.55
2023-03-27T12:52:22.042Z,3.40
2023-03-27T12:55:37.128Z,3.17
2023-03-27T12:58:43.831Z,3.05
2023-03-27T13:02:03.977Z,3.30
2023-03-27T13:05:36.903Z,2.90
2023-03-27T13:09:00.920Z,2.60
2023-03-27T13:12:59.148Z,2.50
2023-03-27T13:16:26.284Z,3.10
2023-03-27T13:19:40.426Z,2.97
2023-03-27T13:22:57.717Z,3.03
2023-03-27T13:26:03.043Z,3.17
2023-03-27T13:29:22.662Z,3.10
2023-03-27T13:32:40.596Z,2.78
2023-03-27T13:36:00.735Z,2.45
2023-03-27T13:39:21.147Z,2.13
2023-03-27T13:42:40.778Z,1.70
2023-03-27T13:45:51.101Z,2.00
2023-03-27T13:53:09.946Z,1.52
2023-03-27T13:56:53.917Z,2.55
2023-03-27T14:00:25.396Z,3.28
2023-03-27T14:04:18.767Z,2.25
2023-03-27T14:07:37.251Z,1.80
2023-03-27T14:11:00.758Z,1.42
2023-03-27T14:14:22.334Z,1.67
2023-03-27T14:17:39.724Z,1.45
2023-03-27T14:20:55.000Z,1.63
2023-03-27T14:24:10.385Z,1.40
2023-03-27T14:27:21.538Z,1.08
2023-03-27T14:30:32.015Z,1.38
2023-03-27T14:34:17.136Z,1.30
2023-03-27T14:37:30.894Z,1.40
2023-03-27T14:40:43.644Z,4.07
2023-03-27T14:43:49.904Z,2.88
2023-03-27T14:47:00.157Z,2.80
2023-03-27T14:50:03.512Z,2.55
2023-03-27T14:53:18.891Z,2.20
2023-03-27T14:56:47.803Z,1.40
2023-03-27T15:00:24.163Z,1.50
2023-03-27T15:03:30.238Z,2.33
2023-03-27T15:06:38.163Z,2.25
2023-03-27T15:09:42.823Z,2.70
2023-03-27T15:13:14.960Z,2.75
2023-03-27T15:16:26.562Z,1.55
2023-03-27T15:19:35.223Z,0.90
2023-03-27T15:25:47.296Z,1.30
2023-03-27T15:29:04.044Z,1.10
2023-03-27T15:32:15.329Z,1.25
2023-03-27T15:35:22.280Z,0.80
2023-03-27T15:38:30.860Z,0.80
2023-03-27T15:41:33.066Z,0.95
2023-03-27T15:44:40.379Z,0.98
2023-03-27T15:47:42.759Z,1.10
2023-03-27T15:50:59.680Z,1.17
2023-03-27T15:54:24.441Z,1.33
2023-03-27T15:57:31.912Z,1.08
2023-03-27T16:00:34.655Z,1.95
2023-03-27T16:03:41.272Z,2.03
2023-03-27T16:06:46.333Z,2.45
2023-03-27T16:09:56.198Z,1.60
2023-03-27T16:13:02.785Z,1.42
2023-03-27T16:16:26.187Z,0.90
2023-03-27T16:19:28.394Z,1.23
2023-03-27T16:22:39.587Z,0.73
2023-03-27T16:25:42.423Z,0.77
2023-03-27T16:28:44.892Z,0.90
2023-03-27T16:31:48.078Z,0.75
2023-03-27T16:34:53.655Z,0.93
2023-03-27T16:37:57.064Z,0.70
2023-03-27T16:41:01.522Z,0.90
2023-03-27T16:44:04.435Z,0.60
2023-03-27T16:47:06.643Z,0.85
2023-03-27T16:50:18.688Z,0.45
2023-03-27T16:53:20.590Z,0.70
2023-03-27T16:56:22.920Z,0.70
2023-03-27T16:59:25.194Z,0.93
2023-03-27T17:02:28.917Z,0.55
2023-03-27T17:05:34.356Z,0.40
2023-03-27T17:08:37.145Z,0.47
2023-03-27T17:11:39.496Z,0.50
2023-03-27T17:14:41.241Z,0.75
2023-03-27T17:17:43.554Z,0.55
2023-03-27T17:20:46.889Z,0.50
2023-03-27T17:23:49.513Z,0.50
2023-03-27T17:26:52.257Z,0.60
2023-03-27T17:29:57.861Z,0.55
2023-03-27T17:33:00.966Z,0.80
2023-03-27T17:36:08.750Z,0.68
2023-03-27T17:39:11.108Z,0.80
2023-03-27T17:42:14.058Z,0.90
2023-03-27T17:45:16.668Z,0.90
2023-03-27T17:48:19.422Z,1.00
2023-03-27T17:51:21.705Z,1.38
2023-03-27T17:54:26.618Z,1.55
2023-03-27T17:57:28.817Z,1.40
2023-03-27T18:00:31.663Z,1.50
2023-03-27T18:03:33.566Z,1.40
2023-03-27T18:06:36.686Z,1.23
2023-03-27T18:09:38.956Z,1.20
2023-03-27T18:12:41.203Z,1.38
2023-03-27T18:15:44.963Z,1.60
2023-03-27T18:18:48.071Z,2.10
2023-03-27T18:21:50.881Z,1.65
2023-03-27T18:24:53.093Z,1.58
2023-03-27T18:27:56.147Z,1.90
2023-03-27T18:31:04.727Z,1.70
2023-03-27T18:34:10.503Z,2.00
2023-03-27T18:37:13.517Z,2.30
2023-03-27T18:40:17.277Z,2.40
2023-03-27T18:43:20.258Z,1.90
2023-03-27T18:46:25.949Z,2.03
2023-03-27T18:49:28.860Z,2.30
2023-03-27T18:52:32.087Z,2.03
2023-03-27T18:55:34.894Z,2.30
2023-03-27T18:58:37.168Z,2.42
2023-03-27T19:01:39.578Z,3.00
2023-03-27T19:04:41.742Z,2.60
2023-03-27T19:07:44.857Z,2.65
2023-03-27T19:10:49.594Z,3.10
2023-03-27T19:14:12.145Z,3.03
2023-03-27T19:17:34.864Z,2.83
2023-03-27T19:20:51.407Z,2.90
2023-03-27T19:24:07.503Z,2.40
2023-03-27T19:27:24.011Z,2.60
2023-03-27T19:30:27.966Z,2.45
2023-03-27T19:33:30.475Z,2.72
2023-03-27T19:36:32.626Z,2.80
2023-03-27T19:39:34.281Z,2.83
2023-03-27T19:42:36.850Z,2.90
2023-03-27T19:45:39.267Z,3.13
2023-03-27T19:48:44.616Z,3.00
2023-03-27T19:52:01.274Z,2.83
2023-03-27T19:55:04.607Z,2.75
2023-03-27T19:58:07.381Z,3.25
2023-03-27T20:01:11.966Z,2.90
2023-03-27T20:04:14.177Z,2.80
2023-03-27T20:07:16.986Z,3.10
2023-03-27T20:10:21.411Z,3.00
2023-03-27T20:13:24.229Z,2.63
2023-03-27T20:16:27.913Z,3.00
2023-03-27T20:19:31.664Z,2.75
2023-03-27T20:22:46.341Z,2.80
2023-03-27T20:25:57.660Z,2.60
2023-03-27T20:29:00.483Z,2.78
2023-03-27T20:32:02.932Z,3.00
2023-03-27T20:35:16.582Z,2.72
2023-03-27T20:38:29.199Z,2.50
2023-03-27T20:41:34.514Z,3.17
2023-03-27T20:44:37.740Z,3.45
2023-03-27T20:47:43.612Z,3.17
2023-03-27T20:50:49.218Z,3.35
2023-03-27T20:53:56.287Z,3.53
2023-03-27T20:56:58.992Z,3.38
2023-03-27T21:00:01.857Z,3.75
2023-03-27T21:03:04.610Z,3.40
2023-03-27T21:06:15.696Z,4.10
2023-03-27T21:09:17.620Z,3.60
2023-03-27T21:12:19.522Z,3.70
2023-03-27T21:15:21.846Z,3.70
2023-03-27T21:18:25.039Z,4.43
2023-03-27T21:21:27.564Z,3.83
2023-03-27T21:24:29.298Z,3.58
2023-03-27T21:27:34.048Z,3.38
2023-03-27T21:30:47.217Z,3.85
2023-03-27T21:33:52.601Z,3.40
2023-03-27T21:36:54.972Z,3.63
2023-03-27T21:39:57.794Z,4.13
2023-03-27T21:43:00.521Z,3.63
2023-03-27T21:46:04.270Z,3.38
2023-03-27T21:49:06.531Z,3.85
2023-03-27T21:52:09.920Z,3.08
2023-03-27T21:55:12.140Z,3.10
2023-03-27T21:58:14.538Z,3.88
2023-03-27T22:01:16.570Z,3.20
2023-03-27T22:04:20.560Z,2.97
2023-03-27T22:07:24.073Z,2.90
2023-03-27T22:10:26.907Z,3.25
2023-03-27T22:13:29.156Z,3.35
2023-03-27T22:16:32.671Z,2.78
2023-03-27T22:19:34.925Z,3.35
2023-03-27T22:22:42.191Z,3.80
2023-03-27T22:25:52.445Z,3.40
2023-03-27T22:28:54.280Z,3.03
2023-03-27T22:31:56.254Z,3.28
2023-03-27T22:34:57.982Z,3.20
2023-03-27T22:37:59.704Z,2.88
2023-03-27T22:41:05.420Z,3.47
2023-03-27T22:44:08.399Z,3.22
2023-03-27T22:47:10.760Z,3.33
2023-03-27T22:50:13.496Z,2.95
2023-03-27T22:53:15.917Z,2.67
2023-03-27T22:56:18.881Z,3.63
2023-03-27T22:59:21.738Z,3.22
2023-03-27T23:02:24.381Z,3.30
2023-03-27T23:05:26.209Z,2.78
2023-03-27T23:08:28.717Z,3.22
2023-03-27T23:11:30.574Z,3.03
2023-03-27T23:14:32.912Z,3.00
2023-03-27T23:17:36.365Z,3.47
2023-03-27T23:20:40.964Z,2.80
2023-03-27T23:23:44.837Z,2.50
2023-03-27T23:26:47.616Z,2.85
2023-03-27T23:29:49.920Z,2.95
2023-03-27T23:32:52.677Z,2.67
2023-03-27T23:36:02.296Z,2.95
2023-03-27T23:39:05.335Z,2.50
2023-03-27T23:42:08.097Z,2.63
2023-03-27T23:45:11.858Z,2.60
2023-03-27T23:48:14.766Z,2.80
2023-03-27T23:51:17.664Z,2.95
2023-03-27T23:54:20.376Z,2.97
2023-03-27T23:57:23.134Z,2.83
